createdAt,value
2022-12-25T00:01:25.197Z,97221.09
2022-12-25T00:03:52.584Z,97211.81
2022-12-25T00:06:20.125Z,97211.41
2022-12-25T00:08:47.060Z,97207.53
2022-12-25T00:11:19.655Z,97212.16
2022-12-25T00:13:47.076Z,97211.38
2022-12-25T00:16:21.993Z,97209.88
2022-12-25T00:18:51.690Z,97198.66
2022-12-25T00:21:21.250Z,97199.03
2022-12-25T00:23:50.617Z,97186.69
2022-12-25T00:26:19.656Z,97190.94
2022-12-25T00:28:49.004Z,97182.88
2022-12-25T00:31:17.716Z,97182.13
2022-12-25T00:33:46.227Z,97186.03
2022-12-25T00:36:15.183Z,97192.97
2022-12-25T00:38:42.788Z,97192.56
2022-12-25T00:41:12.246Z,97187.94
2022-12-25T00:43:41.948Z,97179.50
2022-12-25T00:46:09.982Z,97182.16
2022-12-25T00:48:42.020Z,97174.06
2022-12-25T00:51:11.692Z,97168.63
2022-12-25T00:53:38.572Z,97166.69
2022-12-25T00:56:09.984Z,97160.13
2022-12-25T00:58:39.112Z,97159.38
2022-12-25T01:01:08.196Z,97165.56
2022-12-25T01:03:36.840Z,97153.19
2022-12-25T01:06:10.944Z,97164.00
2022-12-25T01:08:59.848Z,97163.59
2022-12-25T01:11:29.231Z,97158.97
2022-12-25T01:13:58.622Z,97163.19
2022-12-25T01:16:25.824Z,97160.91
2022-12-25T01:18:55.305Z,97161.66
2022-12-25T01:21:27.176Z,97169.38
2022-12-25T01:23:56.750Z,97162.41
2022-12-25T01:26:28.019Z,97164.75
2022-12-25T01:28:54.899Z,97176.31
2022-12-25T01:31:26.299Z,97165.91
2022-12-25T01:33:53.127Z,97165.13
2022-12-25T01:36:22.483Z,97175.13
2022-12-25T01:38:50.053Z,97176.31
2022-12-25T01:41:19.684Z,97167.50
2022-12-25T01:44:10.046Z,97167.50
2022-12-25T01:46:36.677Z,97177.13
2022-12-25T01:49:14.332Z,97174.06
2022-12-25T01:52:06.172Z,97170.59
2022-12-25T01:54:36.168Z,97165.94
2022-12-25T01:57:06.782Z,97165.91
2022-12-25T01:59:35.841Z,97163.97
2022-12-25T02:02:03.612Z,97157.44
2022-12-25T02:04:39.313Z,97150.16
2022-12-25T02:07:13.808Z,97169.06
2022-12-25T02:09:40.970Z,97164.47
2022-12-25T02:12:11.681Z,97157.56
2022-12-25T02:14:38.381Z,97150.59
2022-12-25T02:17:13.896Z,97162.53
2022-12-25T02:20:02.387Z,97158.63
2022-12-25T02:22:41.748Z,97151.69
2022-12-25T02:25:35.731Z,97163.22
2022-12-25T02:28:24.132Z,97156.66
2022-12-25T02:31:03.554Z,97163.22
2022-12-25T02:34:00.998Z,97148.94
2022-12-25T02:36:38.830Z,97152.81
2022-12-25T02:39:34.075Z,97154.72
2022-12-25T02:42:07.273Z,97162.44
2022-12-25T02:44:55.856Z,97144.31
2022-12-25T02:47:42.313Z,97152.03
2022-12-25T02:50:28.355Z,97150.88
2022-12-25T02:53:18.132Z,97145.44
2022-12-25T02:56:07.445Z,97152.75
2022-12-25T02:58:56.331Z,97152.38
2022-12-25T03:01:43.852Z,97150.50
2022-12-25T03:04:34.773Z,97139.34
2022-12-25T03:07:18.707Z,97137.47
2022-12-25T03:10:16.222Z,97140.97
2022-12-25T03:12:46.425Z,97147.91
2022-12-25T03:15:36.593Z,97147.13
2022-12-25T03:18:09.665Z,97140.97
2022-12-25T03:20:59.812Z,97131.28
2022-12-25T03:23:52.485Z,97122.44
2022-12-25T03:26:38.433Z,97128.97
2022-12-25T03:29:07.114Z,97137.50
2022-12-25T03:31:47.017Z,97134.41
2022-12-25T03:34:59.041Z,97132.84
2022-12-25T03:37:34.189Z,97127.81
2022-12-25T03:40:34.582Z,97123.63
2022-12-25T03:43:50.773Z,97128.56
2022-12-25T03:46:39.706Z,97128.94
2022-12-25T03:49:33.196Z,97121.69
2022-12-25T03:52:21.596Z,97126.75
2022-12-25T03:55:09.748Z,97120.19
2022-12-25T03:57:59.897Z,97118.69
2022-12-25T04:00:47.392Z,97119.84
2022-12-25T04:03:32.549Z,97127.91
2022-12-25T04:06:19.394Z,97119.38
2022-12-25T04:09:04.243Z,97120.16
2022-12-25T04:12:02.266Z,97117.06
2022-12-25T04:14:48.723Z,97120.88
2022-12-25T04:17:36.177Z,97125.50
2022-12-25T04:20:21.474Z,97118.56
2022-12-25T04:23:10.267Z,97114.66
2022-12-25T04:25:55.595Z,97113.91
2022-12-25T04:28:45.759Z,97119.69
2022-12-25T04:31:30.916Z,97118.47
2022-12-25T04:34:18.433Z,97121.19
2022-12-25T04:36:45.178Z,97113.09
2022-12-25T04:39:11.745Z,97107.72
2022-12-25T04:41:38.306Z,97110.81
2022-12-25T04:44:07.101Z,97114.69
2022-12-25T04:46:33.791Z,97111.22
2022-12-25T04:49:00.495Z,97099.69
2022-12-25T04:51:27.109Z,97106.63
2022-12-25T04:53:57.399Z,97102.75
2022-12-25T04:56:26.417Z,97110.09
2022-12-25T04:58:52.997Z,97109.31
2022-12-25T05:01:21.843Z,97100.88
2022-12-25T05:03:50.984Z,97101.69
2022-12-25T05:06:19.727Z,97102.81
2022-12-25T05:08:48.529Z,97102.81
2022-12-25T05:11:15.910Z,97089.69
2022-12-25T05:13:44.881Z,97091.97
2022-12-25T05:16:18.676Z,97092.00
2022-12-25T05:18:45.342Z,97085.06
2022-12-25T05:21:14.426Z,97083.88
2022-12-25T05:23:48.690Z,97081.13
2022-12-25T05:26:18.174Z,97085.75
2022-12-25T05:28:44.772Z,97086.91
2022-12-25T05:31:11.717Z,97073.47
2022-12-25T05:33:40.503Z,97078.13
2022-12-25T05:36:11.946Z,97081.59
2022-12-25T05:38:43.312Z,97075.44
2022-12-25T05:41:10.022Z,97065.81
2022-12-25T05:43:41.482Z,97068.44
2022-12-25T05:46:11.637Z,97065.38
2022-12-25T05:48:38.596Z,97068.44
2022-12-25T05:51:11.047Z,97068.06
2022-12-25T05:53:38.376Z,97061.50
2022-12-25T05:56:06.760Z,97061.50
2022-12-25T05:58:35.092Z,97064.22
2022-12-25T06:01:02.415Z,97062.28
2022-12-25T06:03:33.836Z,97063.06
2022-12-25T06:06:03.350Z,97065.38
2022-12-25T06:08:29.911Z,97065.38
2022-12-25T06:10:56.460Z,97064.22
2022-12-25T06:13:23.193Z,97066.16
2022-12-25T06:15:49.784Z,97060.03
2022-12-25T06:18:16.370Z,97067.34
2022-12-25T06:20:43.256Z,97062.00
2022-12-25T06:23:12.347Z,97053.13
2022-12-25T06:25:40.451Z,97058.13
2022-12-25T06:28:09.884Z,97055.88
2022-12-25T06:30:36.457Z,97052.78
2022-12-25T06:33:03.058Z,97045.84
2022-12-25T06:35:32.959Z,97041.22
2022-12-25T06:37:59.508Z,97043.94
2022-12-25T06:40:26.081Z,97038.16
2022-12-25T06:42:55.014Z,97032.75
2022-12-25T06:45:21.613Z,97035.06
2022-12-25T06:47:50.351Z,97041.19
2022-12-25T06:50:17.027Z,97042.72
2022-12-25T06:52:45.970Z,97051.28
2022-12-25T06:55:12.548Z,97051.28
2022-12-25T06:57:41.578Z,97047.78
2022-12-25T07:00:08.988Z,97052.78
2022-12-25T07:02:38.501Z,97049.34
2022-12-25T07:05:08.384Z,97047.06
2022-12-25T07:07:39.751Z,97045.50
2022-12-25T07:10:07.031Z,97044.72
2022-12-25T07:12:33.649Z,97033.16
2022-12-25T07:15:04.803Z,97033.56
2022-12-25T07:17:36.986Z,97023.94
2022-12-25T07:20:07.031Z,97042.03
2022-12-25T07:22:33.543Z,97029.72
2022-12-25T07:25:02.325Z,97037.78
2022-12-25T07:27:28.880Z,97028.22
2022-12-25T07:29:57.716Z,97027.81
2022-12-25T07:32:26.550Z,97033.91
2022-12-25T07:34:55.297Z,97046.63
2022-12-25T07:37:27.281Z,97038.91
2022-12-25T07:39:56.341Z,97046.66
2022-12-25T07:42:25.356Z,97057.44
2022-12-25T07:44:54.432Z,97052.47
2022-12-25T07:47:23.246Z,97046.31
2022-12-25T07:49:52.123Z,97048.97
2022-12-25T07:52:18.713Z,97059.75
2022-12-25T07:54:47.353Z,97053.59
2022-12-25T07:57:16.205Z,97058.22
2022-12-25T07:59:42.761Z,97055.09
2022-12-25T08:02:14.021Z,97055.09
2022-12-25T08:04:45.681Z,97058.19
2022-12-25T08:07:14.323Z,97064.00
2022-12-25T08:09:40.923Z,97068.22
2022-12-25T08:12:07.545Z,97064.34
2022-12-25T08:14:34.064Z,97069.38
2022-12-25T08:17:03.674Z,97068.59
2022-12-25T08:19:35.295Z,97073.22
2022-12-25T08:22:01.881Z,97078.22
2022-12-25T08:24:28.457Z,97082.47
2022-12-25T08:26:57.523Z,97083.22
2022-12-25T08:29:28.929Z,97087.09
2022-12-25T08:31:58.566Z,97089.78
2022-12-25T08:34:25.171Z,97080.94
2022-12-25T08:36:53.955Z,97084.78
2022-12-25T08:39:22.891Z,97087.09
2022-12-25T08:41:51.629Z,97091.66
2022-12-25T08:44:18.173Z,97087.03
2022-12-25T08:46:44.911Z,97079.34
2022-12-25T08:49:11.600Z,97075.44
2022-12-25T08:51:38.274Z,97070.84
2022-12-25T08:54:04.902Z,97068.94
2022-12-25T08:56:34.132Z,97070.81
2022-12-25T08:59:00.719Z,97077.31
2022-12-25T09:01:27.456Z,97078.19
2022-12-25T09:03:57.078Z,97085.06
2022-12-25T09:06:23.674Z,97084.72
2022-12-25T09:08:50.264Z,97091.63
2022-12-25T09:11:22.434Z,97080.88
2022-12-25T09:13:49.665Z,97085.50
2022-12-25T09:16:22.149Z,97083.97
2022-12-25T09:18:49.901Z,97078.47
2022-12-25T09:21:17.637Z,97071.91
2022-12-25T09:23:46.663Z,97071.50
2022-12-25T09:26:15.635Z,97083.78
2022-12-25T09:28:50.289Z,97090.34
2022-12-25T09:31:18.491Z,97082.88
2022-12-25T09:33:45.161Z,97094.91
2022-12-25T09:36:11.755Z,97092.91
2022-12-25T09:38:40.700Z,97082.09
2022-12-25T09:41:16.261Z,97078.63
2022-12-25T09:43:48.817Z,97077.41
2022-12-25T09:46:20.011Z,97079.66
2022-12-25T09:49:04.547Z,97076.09
2022-12-25T09:51:35.632Z,97080.34
2022-12-25T09:54:07.034Z,97066.00
2022-12-25T09:56:38.342Z,97065.38
2022-12-25T09:59:11.055Z,97067.94
2022-12-25T10:02:23.797Z,97072.09
2022-12-25T10:04:50.476Z,97068.16
2022-12-25T10:07:28.180Z,97055.09
2022-12-25T10:10:11.051Z,97067.44
2022-12-25T10:12:57.294Z,97069.28
2022-12-25T10:15:45.631Z,97063.88
2022-12-25T10:18:37.484Z,97063.41
2022-12-25T10:21:13.331Z,97066.03
2022-12-25T10:24:21.696Z,97065.22
2022-12-25T10:26:54.072Z,97064.84
2022-12-25T10:29:23.082Z,97063.28
2022-12-25T10:31:55.441Z,97061.31
2022-12-25T10:34:24.749Z,97062.75
2022-12-25T10:36:51.484Z,97068.13
2022-12-25T10:39:20.070Z,97056.16
2022-12-25T10:42:18.481Z,97048.63
2022-12-25T10:45:02.562Z,97049.63
2022-12-25T10:47:38.213Z,97047.28
2022-12-25T10:50:17.727Z,97034.47
2022-12-25T10:53:20.195Z,97049.50
2022-12-25T10:56:03.218Z,97041.38
2022-12-25T10:58:36.024Z,97045.53
2022-12-25T11:01:09.768Z,97051.28
2022-12-25T11:03:41.810Z,97045.34
2022-12-25T11:06:22.871Z,97045.97
2022-12-25T11:09:03.960Z,97050.84
2022-12-25T11:11:31.072Z,97051.94
2022-12-25T11:14:01.851Z,97043.41
2022-12-25T11:16:32.748Z,97044.59
2022-12-25T11:19:00.516Z,97042.66
2022-12-25T11:21:30.472Z,97035.97
2022-12-25T11:24:07.995Z,97035.50
2022-12-25T11:26:48.307Z,97031.66
2022-12-25T11:29:23.522Z,97022.84
2022-12-25T11:31:51.278Z,97007.69
2022-12-25T11:34:28.394Z,96992.22
2022-12-25T11:36:55.182Z,96986.31
2022-12-25T11:39:27.732Z,96987.59
2022-12-25T11:42:00.338Z,96988.72
2022-12-25T11:44:54.815Z,96983.22
2022-12-25T11:47:23.635Z,96987.97
2022-12-25T11:50:20.277Z,96972.47
2022-12-25T11:52:49.878Z,96975.25
2022-12-25T11:55:25.676Z,96966.00
2022-12-25T11:57:59.490Z,96963.75
2022-12-25T12:00:33.272Z,96972.72
2022-12-25T12:03:15.931Z,96963.47
2022-12-25T12:05:57.994Z,96967.41
2022-12-25T12:08:24.804Z,96961.22
2022-12-25T12:11:16.115Z,96966.22
2022-12-25T12:13:54.324Z,96970.81
2022-12-25T12:16:21.056Z,96975.75
2022-12-25T12:18:50.510Z,96976.53
2022-12-25T12:21:29.136Z,96972.78
2022-12-25T12:24:06.844Z,96968.81
2022-12-25T12:26:38.230Z,96962.75
2022-12-25T12:29:07.596Z,96954.63
2022-12-25T12:31:45.575Z,96957.63
2022-12-25T12:34:28.879Z,96952.63
2022-12-25T12:37:07.623Z,96943.72
2022-12-25T12:39:38.445Z,96950.31
2022-12-25T12:42:30.023Z,96957.28
2022-12-25T12:45:07.516Z,96954.22
2022-12-25T12:47:41.124Z,96963.16
2022-12-25T12:50:26.131Z,96958.88
2022-12-25T12:52:53.022Z,96963.16
2022-12-25T12:55:33.225Z,96970.94
2022-12-25T12:58:02.293Z,96968.97
2022-12-25T13:00:44.675Z,96974.53
2022-12-25T13:03:17.360Z,96975.34
2022-12-25T13:05:50.582Z,96979.94
2022-12-25T13:08:39.122Z,96982.59
2022-12-25T13:11:24.142Z,96987.00
2022-12-25T13:13:55.428Z,96985.47
2022-12-25T13:16:33.717Z,96983.16
2022-12-25T13:19:08.636Z,96979.66
2022-12-25T13:21:40.057Z,96981.53
2022-12-25T13:24:22.797Z,96980.41
2022-12-25T13:26:49.473Z,96979.16
2022-12-25T13:29:32.455Z,96974.63
2022-12-25T13:32:00.727Z,96980.47
2022-12-25T13:34:33.873Z,96977.34
2022-12-25T13:37:14.051Z,96982.03
2022-12-25T13:39:58.188Z,96987.47
2022-12-25T13:42:37.874Z,96996.00
2022-12-25T13:45:21.707Z,96998.66
2022-12-25T13:47:54.905Z,96997.84
2022-12-25T13:50:22.265Z,97004.47
2022-12-25T13:52:51.608Z,97012.66
2022-12-25T13:55:26.373Z,97011.53
2022-12-25T13:57:54.609Z,96993.34
2022-12-25T14:00:23.603Z,97013.84
2022-12-25T14:02:51.788Z,97008.50
2022-12-25T14:05:42.175Z,97012.00
2022-12-25T14:08:24.336Z,97013.06
2022-12-25T14:10:57.015Z,97020.84
2022-12-25T14:13:27.480Z,97020.31
2022-12-25T14:15:56.762Z,97023.84
2022-12-25T14:18:25.229Z,97032.34
2022-12-25T14:21:02.620Z,97018.41
2022-12-25T14:23:42.094Z,97024.59
2022-12-25T14:26:18.629Z,97018.91
2022-12-25T14:28:51.539Z,97031.72
2022-12-25T14:31:25.018Z,97025.59
2022-12-25T14:33:53.832Z,97008.22
2022-12-25T14:36:22.956Z,97016.69
2022-12-25T14:39:01.643Z,97021.72
2022-12-25T14:41:37.775Z,97005.03
2022-12-25T14:44:25.671Z,97012.81
2022-12-25T14:47:03.509Z,97025.59
2022-12-25T14:49:34.317Z,97026.69
2022-12-25T14:52:30.277Z,97025.59
2022-12-25T14:54:56.836Z,97029.47
2022-12-25T14:57:32.311Z,97033.34
2022-12-25T15:00:05.299Z,97026.81
2022-12-25T15:02:40.705Z,97029.88
2022-12-25T15:05:23.922Z,97035.69
2022-12-25T15:08:02.699Z,97031.78
2022-12-25T15:13:21.420Z,97039.56
2022-12-25T15:15:52.163Z,97031.41
2022-12-25T15:18:26.751Z,97035.69
2022-12-25T15:20:54.341Z,97033.84
2022-12-25T15:23:25.349Z,97029.25
2022-12-25T15:25:52.526Z,97033.91
2022-12-25T15:28:22.067Z,97030.88
2022-12-25T15:30:49.942Z,97019.69
2022-12-25T15:33:18.157Z,97023.16
2022-12-25T15:35:45.003Z,97023.22
2022-12-25T15:38:12.941Z,97028.97
2022-12-25T15:40:40.147Z,97031.69
2022-12-25T15:43:14.537Z,97027.84
2022-12-25T15:45:54.014Z,97021.25
2022-12-25T15:48:23.104Z,97034.81
2022-12-25T15:50:52.272Z,97038.28
2022-12-25T15:53:24.181Z,97031.31
2022-12-25T15:55:53.001Z,97040.19
2022-12-25T15:58:19.578Z,97025.16
2022-12-25T16:00:48.473Z,97031.72
2022-12-25T16:03:15.092Z,97033.25
2022-12-25T16:05:44.077Z,97033.25
2022-12-25T16:08:10.608Z,97031.72
2022-12-25T16:10:39.206Z,97027.09
2022-12-25T16:13:09.568Z,97024.00
2022-12-25T16:15:36.207Z,97027.13
2022-12-25T16:18:03.664Z,97024.09
2022-12-25T16:20:30.273Z,97029.88
2022-12-25T16:22:56.899Z,97034.16
2022-12-25T16:25:25.699Z,97049.63
2022-12-25T16:27:54.493Z,97046.56
2022-12-25T16:30:26.322Z,97041.53
2022-12-25T16:32:55.848Z,97050.88
2022-12-25T16:35:24.947Z,97048.16
2022-12-25T16:37:53.987Z,97047.38
2022-12-25T16:40:20.813Z,97046.25
2022-12-25T16:42:49.872Z,97048.56
2022-12-25T16:45:18.936Z,97052.03
2022-12-25T16:47:48.056Z,97048.56
2022-12-25T16:50:14.939Z,97052.84
2022-12-25T16:52:43.882Z,97062.16
2022-12-25T16:55:10.594Z,97072.25
2022-12-25T16:57:37.521Z,97068.78
2022-12-25T17:00:04.556Z,97071.13
2022-12-25T17:02:33.489Z,97063.78
2022-12-25T17:05:03.146Z,97071.91
2022-12-25T17:07:29.741Z,97069.63
2022-12-25T17:09:58.851Z,97078.09
2022-12-25T17:12:25.498Z,97073.84
2022-12-25T17:14:52.301Z,97076.94
2022-12-25T17:17:18.888Z,97083.91
2022-12-25T17:19:45.532Z,97081.56
2022-12-25T17:22:12.160Z,97075.75
2022-12-25T17:24:41.593Z,97090.09
2022-12-25T17:27:11.259Z,97071.16
2022-12-25T17:29:43.985Z,97061.16
2022-12-25T17:32:13.808Z,97065.06
2022-12-25T17:34:42.847Z,97067.00
2022-12-25T17:37:09.680Z,97073.19
2022-12-25T17:39:36.288Z,97080.53
2022-12-25T17:42:02.935Z,97076.72
2022-12-25T17:44:32.465Z,97077.19
2022-12-25T17:46:59.166Z,97066.09
2022-12-25T17:49:26.267Z,97082.31
2022-12-25T17:51:57.170Z,97080.31
2022-12-25T17:54:23.722Z,97080.31
2022-12-25T17:56:50.742Z,97096.53
2022-12-25T17:59:23.206Z,97101.53
2022-12-25T18:01:52.888Z,97114.66
2022-12-25T18:04:20.113Z,97108.09
2022-12-25T18:06:46.966Z,97108.09
2022-12-25T18:09:13.609Z,97121.97
2022-12-25T18:11:43.689Z,97122.72
2022-12-25T18:14:16.681Z,97131.22
2022-12-25T18:16:45.383Z,97132.78
2022-12-25T18:19:13.330Z,97132.38
2022-12-25T18:21:44.922Z,97134.28
2022-12-25T18:24:11.518Z,97133.91
2022-12-25T18:26:40.581Z,97138.97
2022-12-25T18:29:09.403Z,97136.66
2022-12-25T18:31:38.371Z,97131.63
2022-12-25T18:34:05.029Z,97132.81
2022-12-25T18:36:31.864Z,97131.63
2022-12-25T18:38:58.757Z,97124.72
2022-12-25T18:41:28.056Z,97128.59
2022-12-25T18:43:57.653Z,97127.44
2022-12-25T18:46:27.622Z,97121.44
2022-12-25T18:48:58.749Z,97119.97
2022-12-25T18:51:34.878Z,97107.16
2022-12-25T18:54:03.457Z,97119.88
2022-12-25T18:56:30.006Z,97135.69
2022-12-25T18:58:59.663Z,97126.59
2022-12-25T19:01:28.759Z,97126.59
2022-12-25T19:04:02.032Z,97126.97
2022-12-25T19:06:35.047Z,97133.13
2022-12-25T19:09:08.751Z,97125.94
2022-12-25T19:11:41.984Z,97133.63
2022-12-25T19:14:10.888Z,97135.16
2022-12-25T19:16:40.117Z,97132.47
2022-12-25T19:19:09.213Z,97127.44
2022-12-25T19:21:37.996Z,97120.09
2022-12-25T19:24:11.754Z,97132.03
2022-12-25T19:26:40.542Z,97124.72
2022-12-25T19:29:09.405Z,97125.59
2022-12-25T19:31:38.392Z,97126.78
2022-12-25T19:34:05.240Z,97126.72
2022-12-25T19:36:32.511Z,97126.69
2022-12-25T19:38:59.116Z,97131.69
2022-12-25T19:41:25.713Z,97128.59
2022-12-25T19:43:54.725Z,97139.06
2022-12-25T19:46:24.710Z,97135.16
2022-12-25T19:48:51.750Z,97132.47
2022-12-25T19:51:25.357Z,97131.75
2022-12-25T19:53:56.677Z,97133.63
2022-12-25T19:56:24.657Z,97138.25
2022-12-25T19:58:55.752Z,97139.00
2022-12-25T20:01:24.369Z,97136.69
2022-12-25T20:03:54.703Z,97135.16
2022-12-25T20:06:26.573Z,97135.50
2022-12-25T20:09:00.389Z,97125.50
2022-12-25T20:11:29.231Z,97129.38
2022-12-25T20:13:58.690Z,97127.81
2022-12-25T20:16:27.838Z,97128.97
2022-12-25T20:18:55.981Z,97129.38
2022-12-25T20:21:29.786Z,97125.50
2022-12-25T20:23:56.942Z,97128.59
2022-12-25T20:26:25.925Z,97130.91
2022-12-25T20:28:58.351Z,97131.28
2022-12-25T20:31:32.539Z,97135.16
2022-12-25T20:34:06.087Z,97134.38
2022-12-25T20:36:37.507Z,97138.63
2022-12-25T20:39:08.640Z,97144.03
2022-12-25T20:41:35.459Z,97142.88
2022-12-25T20:44:04.431Z,97146.75
2022-12-25T20:46:31.166Z,97144.81
2022-12-25T20:49:00.559Z,97148.66
2022-12-25T20:51:29.600Z,97154.81
2022-12-25T20:53:56.992Z,97156.34
2022-12-25T20:56:25.981Z,97158.31
2022-12-25T20:58:59.402Z,97164.44
2022-12-25T21:01:30.643Z,97167.91
2022-12-25T21:04:00.078Z,97170.22
2022-12-25T21:06:28.994Z,97169.09
2022-12-25T21:08:55.635Z,97173.38
2022-12-25T21:11:22.351Z,97190.34
2022-12-25T21:13:51.703Z,97188.81
2022-12-25T21:16:22.511Z,97185.72
2022-12-25T21:18:56.135Z,97180.31
2022-12-25T21:21:22.805Z,97183.00
2022-12-25T21:23:49.478Z,97187.25
2022-12-25T21:26:15.962Z,97194.22
2022-12-25T21:28:42.578Z,97193.81
2022-12-25T21:31:11.879Z,97193.44
2022-12-25T21:33:53.744Z,97193.81
2022-12-25T21:36:29.490Z,97185.34
2022-12-25T21:39:01.415Z,97190.38
2022-12-25T21:41:30.343Z,97185.72
2022-12-25T21:43:57.362Z,97189.22
2022-12-25T21:46:27.580Z,97207.00
2022-12-25T21:48:54.887Z,97207.00
2022-12-25T21:51:49.397Z,97203.47
2022-12-25T21:54:17.562Z,97209.28
2022-12-25T21:56:48.076Z,97214.66
2022-12-25T21:59:23.040Z,97216.22
2022-12-25T22:01:53.969Z,97213.91
2022-12-25T22:04:23.756Z,97215.06
2022-12-25T22:07:09.258Z,97221.63
2022-12-25T22:09:38.596Z,97223.56
2022-12-25T22:12:28.612Z,97227.78
2022-12-25T22:15:03.084Z,97231.66
2022-12-25T22:17:50.869Z,97231.66
2022-12-25T22:20:35.603Z,97237.50
2022-12-25T22:23:02.603Z,97235.56
2022-12-25T22:25:29.611Z,97231.69
2022-12-25T22:27:56.446Z,97238.22
2022-12-25T22:30:29.623Z,97239.81
2022-12-25T22:32:58.632Z,97239.81
2022-12-25T22:35:25.291Z,97242.13
2022-12-25T22:37:54.612Z,97254.53
2022-12-25T22:40:21.411Z,97263.03
2022-12-25T22:42:48.404Z,97259.16
2022-12-25T22:45:17.153Z,97248.31
2022-12-25T22:47:43.825Z,97256.44
2022-12-25T22:50:11.833Z,97260.31
2022-12-25T22:52:40.917Z,97259.53
2022-12-25T22:55:11.472Z,97257.25
2022-12-25T22:57:40.412Z,97259.22
2022-12-25T23:00:13.641Z,97258.06
2022-12-25T23:02:40.423Z,97261.16
2022-12-25T23:05:07.537Z,97266.16
2022-12-25T23:07:34.171Z,97267.69
2022-12-25T23:10:00.767Z,97266.56
2022-12-25T23:12:46.013Z,97262.28
2022-12-25T23:15:14.801Z,97261.13
2022-12-25T23:18:00.358Z,97260.72
2022-12-25T23:20:47.804Z,97261.50
2022-12-25T23:23:36.127Z,97261.91
2022-12-25T23:26:09.563Z,97264.19
2022-12-25T23:28:56.420Z,97255.72
2022-12-25T23:31:32.176Z,97260.31
2022-12-25T23:33:59.627Z,97260.72
2022-12-25T23:36:28.663Z,97267.66
2022-12-25T23:38:55.318Z,97270.34
2022-12-25T23:41:24.274Z,97272.66
2022-12-25T23:43:55.319Z,97275.75
2022-12-25T23:46:24.566Z,97280.75
2022-12-25T23:48:51.119Z,97286.16
2022-12-25T23:51:17.651Z,97290.78
2022-12-25T23:53:46.422Z,97287.34
2022-12-25T23:56:13.344Z,97284.66
2022-12-25T23:58:39.933Z,97289.28
